Huvudsida
METAR-TAF:

METAR-TAF

Flygplatser :

Victoriafallen, Zimbabwe

latitud: 18-06S, longitud: 025-51E, höjd: 1061 m

Aktuellt väderrapport

Denna rapport gjordes för 1 timme och 31 minuter sedan, klockan 13:00 UTC
Vind 7 kt från ost/sydost, varierande mellan ost och syd/sydost
Temperatur 22°C
Fuktighet 43%
Tryck 1024 hPa
Sikt 10 km eller mer
Inga moln under 1 500 m eller inga cumulonimbus

METAR: FVFA 251300Z 11007KT 080V150 CAVOK 22/09 Q1024 NOSIG

Tid: 16:31 (14:31 UTC)


TAF: saknas

Aktuella väderrapporter och prognoser från 4000 flygplatser (METAR- och TAF-rapporter).

De tillgängliga stationerna syns som gula och röda prickar på kartan.

För musen över prickarna för att se namnen på stationerna.

Klicka sedan för att få väderrapporter och prognoser.

För att ändra kartan: Klicka på de gröna knapparna med ett svart kors på för att zooma in; den gröna knappen med ett streck på för att zooma ut; eller på de gröna pilarna för angränsande kartor.


METAR-TAF: